createdAt,value
2022-08-26T14:55:12.450Z,1.09
2022-08-26T15:07:12.940Z,0.46
2022-08-26T15:19:13.281Z,0.63
2022-08-26T15:31:13.881Z,1.03
2022-08-26T15:43:27.705Z,0.81
2022-08-26T15:55:14.664Z,0.69
2022-08-26T16:07:15.132Z,0.91
2022-08-26T16:19:15.608Z,0.34
2022-08-26T16:31:16.095Z,0.60
2022-08-26T16:43:16.510Z,0.65
2022-08-26T16:55:16.911Z,0.37
2022-08-26T17:07:17.414Z,0.09
2022-08-26T17:19:17.888Z,0.00
2022-08-26T17:31:18.399Z,0.06
2022-08-26T17:43:18.780Z,0.00
2022-08-26T17:55:19.272Z,0.20
2022-08-26T18:07:19.684Z,0.13
2022-08-26T18:19:20.174Z,0.03
2022-08-26T18:31:20.650Z,0.00
2022-08-26T18:43:21.093Z,0.00
2022-08-26T18:55:21.493Z,0.00
2022-08-26T19:07:21.976Z,0.00
2022-08-26T19:19:22.432Z,0.00
2022-08-26T19:31:22.945Z,0.00
2022-08-26T19:43:23.345Z,0.04
2022-08-26T19:55:23.767Z,0.19
2022-08-26T20:07:24.219Z,0.00
2022-08-26T20:19:24.735Z,0.00
2022-08-26T20:31:25.210Z,0.00
2022-08-26T20:43:25.621Z,0.00
2022-08-26T20:55:26.073Z,0.00
2022-08-26T21:07:26.553Z,0.00
2022-08-26T21:19:26.984Z,0.00
2022-08-26T21:31:27.469Z,0.03
2022-08-26T21:43:35.430Z,0.09
2022-08-26T21:55:28.333Z,0.00
2022-08-26T22:07:28.819Z,0.00
2022-08-26T22:19:29.281Z,0.06
2022-08-26T22:31:38.082Z,0.00
2022-08-26T22:43:30.152Z,0.00
2022-08-26T22:55:30.618Z,0.00
2022-08-26T23:07:31.088Z,0.00
2022-08-26T23:19:31.535Z,0.00
